Nissho Maru No7 — JH3472 — position and weather

sailwx.info

Track history (hours):
 
Tides and Currents Weather Stations Pressure Air Temp Water Temp Dewpoint Dewpoint Depression Visibility Wind Speed Wind Dir Waves Ship Positions

Nissho Maru No7

Last reported at 2015-Jan-25 21:04 UTC. Time now 2015-Jan-26 00:25 UTC.
Position N 34°35' E 135°27'.

Length 71 m.

MMSI: 431200355.

Date/timePositionNaut miles runAvg speedWind from/ knotsBaromVisibWave heightAir tempDewpointWater temp
2015-Jan-25 21:04N 34°35' E 135°27'0 0.0
2015-Jan-25 19:10N 34°35' E 135°27'0 0.4
2015-Jan-25 18:33N 34°35' E 135°27'0 0.0
2015-Jan-25 17:33N 34°35' E 135°27'0 0.0
2015-Jan-25 16:27N 34°35' E 135°27'0 0.0
2015-Jan-25 10:28N 34°35' E 135°27'6 7.0
2015-Jan-25 09:33N 34°34' E 135°20'1211.0
2015-Jan-25 08:31N 34°26' E 135°10'12 9.9
2015-Jan-25 07:16N 34°17' E 134°59'6 9.1
2015-Jan-25 06:33N 34°14' E 135°06'1 0.9
2015-Jan-25 05:33N 34°15' E 135°07'0 0.0
2015-Jan-25 04:32N 34°15' E 135°07'0 0.0
2015-Jan-25 03:32N 34°15' E 135°07'0 0.0
2015-Jan-25 02:32N 34°15' E 135°07'0 0.0
2015-Jan-25 01:32N 34°15' E 135°07'0 0.1
2015-Jan-25 00:32N 34°15' E 135°07'0 0.0
2015-Jan-24 23:32N 34°15' E 135°07'0 0.0
2015-Jan-24 22:32N 34°15' E 135°07'0 0.0
2015-Jan-24 21:32N 34°15' E 135°07'0 0.0
2015-Jan-24 20:32N 34°15' E 135°07'0 0.0
2015-Jan-24 19:32N 34°15' E 135°07'0 0.0
2015-Jan-24 18:32N 34°15' E 135°07'2 2.3
2015-Jan-24 17:33N 34°15' E 135°04'9 8.9
2015-Jan-24 16:33N 34°23' E 135°00'1110.9
2015-Jan-24 15:33N 34°33' E 135°03'8 7.0
2015-Jan-24 14:26N 34°37' E 134°54'8 0.8
2015-Jan-24 04:20N 34°41' E 134°46'911.2
2015-Jan-24 03:32N 34°37' E 134°56'9 9.3
2015-Jan-24 02:33N 34°31' E 135°04'1312.3
2015-Jan-24 01:30N 34°19' E 134°60'1112.0
2015-Jan-24 00:33N 34°07' E 135°00'  
2015-Jan-18 17:05N 34°05' E 134°47'  
Track history (hours):
 
Tides and Currents Weather Stations Pressure Air Temp Water Temp Dewpoint Dewpoint Depression Visibility Wind Speed Wind Dir Waves Ship Positions

Nissho Maru No7

Last reported at 2015-Jan-25 21:04 UTC. Time now 2015-Jan-26 00:25 UTC.
Position N 34°35' E 135°27'.

Length 71 m.

MMSI: 431200355.

Date/timePositionNaut miles runAvg speedWind from/ knotsBaromVisibWave heightAir tempDewpointWater temp
2015-Jan-25 21:04N 34°35' E 135°27'0 0.0
2015-Jan-25 19:10N 34°35' E 135°27'0 0.4
2015-Jan-25 18:33N 34°35' E 135°27'0 0.0
2015-Jan-25 17:33N 34°35' E 135°27'0 0.0
2015-Jan-25 16:27N 34°35' E 135°27'0 0.0
2015-Jan-25 10:28N 34°35' E 135°27'6 7.0
2015-Jan-25 09:33N 34°34' E 135°20'1211.0
2015-Jan-25 08:31N 34°26' E 135°10'12 9.9
2015-Jan-25 07:16N 34°17' E 134°59'6 9.1
2015-Jan-25 06:33N 34°14' E 135°06'1 0.9
2015-Jan-25 05:33N 34°15' E 135°07'0 0.0
2015-Jan-25 04:32N 34°15' E 135°07'0 0.0
2015-Jan-25 03:32N 34°15' E 135°07'0 0.0
2015-Jan-25 02:32N 34°15' E 135°07'0 0.0
2015-Jan-25 01:32N 34°15' E 135°07'0 0.1
2015-Jan-25 00:32N 34°15' E 135°07'0 0.0
2015-Jan-24 23:32N 34°15' E 135°07'0 0.0
2015-Jan-24 22:32N 34°15' E 135°07'0 0.0
2015-Jan-24 21:32N 34°15' E 135°07'0 0.0
2015-Jan-24 20:32N 34°15' E 135°07'0 0.0
2015-Jan-24 19:32N 34°15' E 135°07'0 0.0
2015-Jan-24 18:32N 34°15' E 135°07'2 2.3
2015-Jan-24 17:33N 34°15' E 135°04'9 8.9
2015-Jan-24 16:33N 34°23' E 135°00'1110.9
2015-Jan-24 15:33N 34°33' E 135°03'8 7.0
2015-Jan-24 14:26N 34°37' E 134°54'8 0.8
2015-Jan-24 04:20N 34°41' E 134°46'911.2
2015-Jan-24 03:32N 34°37' E 134°56'9 9.3
2015-Jan-24 02:33N 34°31' E 135°04'1312.3
2015-Jan-24 01:30N 34°19' E 134°60'1112.0
2015-Jan-24 00:33N 34°07' E 135°00'  
2015-Jan-18 17:05N 34°05' E 134°47'  

Dump ship's entire track history